Time;durP1;ratioP1;P1;durP2;ratioP2;P2;SDS_P1;SDS_P2;PMS_P1;PMS_P2;Temp;Humidity;BMP_temperature;BMP_pressure;BME280_temperature;BME280_humidity;BME280_pressure;Samples;Min_cycle;Max_cycle;Signal;HPM_P1;HPM_P2
2022/02/28 00:00:47;;;;;;;3.93;3.27;;;16.10;77.10;;;15.89;36.23;102655.88;4898562;28;98623;-62
2022/02/28 00:03:12;;;;;;;3.43;3.07;;;16.10;76.80;;;15.89;36.36;102659.44;4902515;28;97429;-61
2022/02/28 00:05:39;;;;;;;4.20;3.80;;;16.10;76.90;;;15.87;36.31;102657.72;4897066;28;100749;-62
2022/02/28 00:08:04;;;;;;;3.43;3.10;;;16.10;74.30;;;15.89;36.19;102663.88;4903243;28;98867;-62
2022/02/28 00:10:31;;;;;;;3.73;3.17;;;16.10;76.90;;;15.87;36.28;102652.41;4883390;28;123359;-62
2022/02/28 00:12:57;;;;;;;3.97;3.00;;;16.10;76.80;;;15.91;35.97;102660.28;4902795;28;97304;-62
2022/02/28 00:15:23;;;;;;;4.33;3.43;;;16.10;76.90;;;15.93;36.47;102662.91;4885271;28;98743;-63
2022/02/28 00:17:49;;;;;;;4.50;3.60;;;16.10;76.80;;;15.93;36.47;102658.44;4903117;28;112000;-63
2022/02/28 00:20:16;;;;;;;3.57;3.27;;;16.10;77.30;;;15.95;36.33;102661.06;4880207;28;97669;-62
2022/02/28 00:22:43;;;;;;;4.07;3.10;;;16.10;77.30;;;15.93;36.54;102654.91;4889535;28;102368;-63
2022/02/28 00:25:12;;;;;;;5.13;3.70;;;16.10;77.60;;;15.93;36.25;102660.25;4889027;28;98860;-63
2022/02/28 00:27:39;;;;;;;3.90;3.30;;;16.10;75.30;;;15.92;36.39;102661.16;4900374;28;98456;-62
2022/02/28 00:30:08;;;;;;;4.07;3.33;;;16.10;76.00;;;15.89;36.17;102655.88;4898432;28;98180;-62
2022/02/28 00:32:34;;;;;;;4.00;3.10;;;16.10;74.50;;;15.87;36.52;102660.38;4882496;28;100137;-63
2022/02/28 00:35:00;;;;;;;4.80;3.50;;;16.00;77.20;;;15.80;36.60;102661.47;4903164;28;97130;-63
2022/02/28 00:37:27;;;;;;;4.23;3.83;;;15.80;77.30;;;15.74;34.64;102662.47;4902097;28;100371;-63
2022/02/28 00:39:52;;;;;;;3.80;3.30;;;15.80;71.80;;;15.71;36.33;102658.13;4902485;28;108234;-63
2022/02/28 00:42:18;;;;;;;5.13;3.97;;;15.70;75.60;;;15.61;34.86;102667.22;4882791;28;98587;-63
2022/02/28 00:44:44;;;;;;;3.90;3.00;;;15.60;69.50;;;15.57;36.67;102670.84;4898177;28;103385;-62
2022/02/28 00:47:10;;;;;;;6.73;4.70;;;15.50;78.20;;;15.37;34.55;102673.13;4899427;28;98143;-63
2022/02/28 00:49:36;;;;;;;3.23;2.90;;;15.20;71.20;;;15.33;37.17;102671.44;4893695;28;100664;-63
2022/02/28 00:52:16;;;;;;;4.70;3.17;;;15.10;75.30;;;15.32;37.29;102669.69;4867104;28;98798;-62
2022/02/28 00:54:46;;;;;;;4.20;3.17;;;15.10;77.40;;;15.18;37.47;102665.56;4896071;28;115224;-62
2022/02/28 00:57:12;;;;;;;4.37;3.53;;;15.00;78.90;;;15.13;37.35;102670.13;4902638;28;97826;-62
2022/02/28 00:59:38;;;;;;;4.73;3.70;;;14.90;77.50;;;15.09;37.63;102673.78;4895941;28;123622;-61
2022/02/28 01:02:04;;;;;;;4.30;3.37;;;14.90;77.90;;;15.00;37.53;102668.66;4899684;28;112271;-62
2022/02/28 01:04:30;;;;;;;3.30;3.00;;;14.70;78.30;;;14.87;37.80;102665.38;4899637;28;113568;-63
2022/02/28 01:06:55;;;;;;;4.00;3.10;;;14.50;78.60;;;14.90;38.25;102667.13;4898185;28;112479;-62
2022/02/28 01:09:24;;;;;;;2.80;2.60;;;14.60;81.30;;;14.88;37.90;102668.91;4903286;28;99092;-61
2022/02/28 01:11:50;;;;;;;5.03;4.03;;;14.60;77.70;;;14.94;37.30;102674.13;4903248;28;97999;-61
2022/02/28 01:14:16;;;;;;;3.43;3.10;;;14.80;76.30;;;14.98;37.85;102675.78;4912980;28;96913;-64
2022/02/28 01:16:43;;;;;;;3.47;3.00;;;14.80;78.60;;;14.91;37.86;102674.19;4917461;28;99773;-61
2022/02/28 01:19:08;;;;;;;5.47;4.13;;;14.70;77.20;;;14.92;37.89;102675.94;4927605;28;96631;-61
2022/02/28 01:21:34;;;;;;;5.07;3.87;;;14.70;79.70;;;14.82;37.84;102680.56;4919464;28;113469;-62
2022/02/28 01:24:00;;;;;;;4.23;3.17;;;14.60;75.50;;;14.81;37.94;102680.59;4925625;28;114398;-61
2022/02/28 01:26:25;;;;;;;3.47;3.17;;;14.50;76.10;;;14.79;38.14;102664.69;4921058;28;109957;-62
2022/02/28 01:28:51;;;;;;;4.53;3.33;;;14.50;76.20;;;14.81;37.94;102672.63;4923093;28;101338;-61
2022/02/28 01:31:17;;;;;;;5.17;3.70;;;14.60;79.90;;;14.88;38.33;102668.91;4914015;28;97023;-66
2022/02/28 01:33:43;;;;;;;3.57;2.93;;;14.70;79.80;;;14.88;38.32;102667.13;4921105;28;97552;-62
2022/02/28 01:36:09;;;;;;;3.60;2.97;;;14.70;80.00;;;14.85;38.17;102669.00;4922339;28;97376;-62
2022/02/28 01:38:35;;;;;;;3.23;2.90;;;14.60;79.10;;;14.83;38.38;102676.13;4919701;28;97831;-62
2022/02/28 01:41:00;;;;;;;3.20;2.90;;;14.60;80.90;;;14.83;38.40;102670.81;4921184;28;123187;-62
2022/02/28 01:43:27;;;;;;;3.73;3.03;;;14.60;81.10;;;14.73;38.32;102675.44;4909443;28;117062;-62
2022/02/28 01:46:06;;;;;;;3.37;2.90;;;14.40;78.60;;;14.78;38.55;102672.72;4919273;28;104972;-62
2022/02/28 01:48:37;;;;;;;4.00;3.43;;;14.40;79.60;;;14.75;38.71;102672.75;4915822;28;97493;-61
2022/02/28 01:51:03;;;;;;;4.30;3.20;;;14.40;77.80;;;14.76;38.92;102678.06;4923388;28;101140;-62
2022/02/28 01:53:29;;;;;;;3.50;3.20;;;14.50;81.90;;;14.70;38.90;102671.97;4913079;28;96742;-62
2022/02/28 01:55:55;;;;;;;3.53;3.13;;;14.40;80.80;;;14.63;39.01;102678.34;4920513;28;96958;-62
2022/02/28 01:58:21;;;;;;;3.37;2.97;;;14.20;77.30;;;14.53;39.35;102673.22;4917078;28;120544;-62
2022/02/28 02:00:48;;;;;;;3.83;3.17;;;14.00;82.30;;;14.46;39.77;102682.19;4912226;28;98159;-63
2022/02/28 02:03:14;;;;;;;6.27;4.53;;;13.90;82.60;;;14.41;39.31;102678.72;4919175;28;97368;-61
2022/02/28 02:05:40;;;;;;;3.90;3.37;;;13.80;76.80;;;14.29;39.86;102684.25;4914535;28;98181;-62
2022/02/28 02:08:07;;;;;;;3.53;2.93;;;13.60;79.50;;;14.07;40.11;102675.84;4930058;28;100594;-61
2022/02/28 02:10:34;;;;;;;5.33;4.30;;;13.20;80.30;;;13.89;40.22;102676.19;4916583;28;97220;-62
2022/02/28 02:13:01;;;;;;;5.03;3.70;;;12.90;78.30;;;13.71;40.81;102669.41;4920027;28;96732;-62
2022/02/28 02:15:27;;;;;;;2.93;2.67;;;12.60;80.50;;;13.60;41.43;102672.25;4919541;28;96995;-61
2022/02/28 02:17:56;;;;;;;3.53;3.10;;;12.50;84.50;;;13.52;41.48;102666.19;4920610;28;97061;-62
2022/02/28 02:20:23;;;;;;;3.33;2.77;;;12.40;84.70;;;13.49;41.54;102668.00;4889246;28;102314;-61
2022/02/28 02:23:01;;;;;;;3.20;2.90;;;12.50;88.50;;;13.52;41.40;102667.97;4906633;28;98405;-61
2022/02/28 02:25:27;;;;;;;3.73;3.33;;;12.70;83.70;;;13.53;41.62;102661.75;4917446;28;98272;-61
2022/02/28 02:27:54;;;;;;;4.27;3.70;;;12.70;83.50;;;13.52;41.16;102660.00;4915948;28;128120;-62
2022/02/28 02:30:21;;;;;;;4.27;3.30;;;12.70;84.60;;;13.54;41.37;102661.72;4916646;28;96825;-62
2022/02/28 02:32:47;;;;;;;4.20;3.20;;;12.80;85.90;;;13.58;41.24;102654.59;4914693;28;96834;-61
2022/02/28 02:35:13;;;;;;;3.93;3.07;;;12.90;85.20;;;13.72;41.06;102652.56;4924639;28;104455;-62
2022/02/28 02:37:39;;;;;;;4.27;3.40;;;13.20;86.40;;;13.83;40.72;102655.06;4922911;28;97363;-62
2022/02/28 02:40:06;;;;;;;4.40;3.53;;;13.40;85.80;;;13.91;40.69;102646.06;4918910;28;97061;-61
2022/02/28 02:42:32;;;;;;;3.50;3.03;;;13.40;85.10;;;14.03;40.59;102655.56;4916064;28;103502;-61
2022/02/28 02:44:58;;;;;;;3.90;3.37;;;13.60;85.60;;;14.08;39.98;102658.16;4918657;28;102987;-62
2022/02/28 02:47:24;;;;;;;3.33;2.73;;;13.70;78.80;;;14.03;40.49;102659.97;4914216;28;98565;-61
2022/02/28 02:49:49;;;;;;;2.83;2.60;;;13.50;84.50;;;14.03;40.57;102655.56;4920251;28;107797;-62
2022/02/28 02:52:15;;;;;;;3.50;3.20;;;13.50;86.80;;;14.07;40.41;102661.69;4917744;28;120060;-62
2022/02/28 02:54:41;;;;;;;3.30;2.70;;;13.50;85.10;;;14.05;40.62;102652.91;4914713;28;98309;-61
2022/02/28 02:57:07;;;;;;;3.63;2.97;;;13.50;83.90;;;14.07;40.58;102661.69;4917989;28;97657;-61
2022/02/28 02:59:33;;;;;;;3.47;2.93;;;13.60;83.20;;;14.00;40.65;102651.19;4915475;28;97561;-62
2022/02/28 03:01:59;;;;;;;3.70;3.07;;;13.40;84.20;;;14.00;40.67;102648.53;4920514;28;98723;-61
2022/02/28 03:04:25;;;;;;;3.23;2.93;;;13.40;85.00;;;14.00;41.00;102651.19;4916637;28;104382;-61
2022/02/28 03:06:50;;;;;;;4.07;3.17;;;13.50;83.70;;;14.03;40.66;102654.69;4921775;28;110177;-61
2022/02/28 03:09:16;;;;;;;3.97;3.13;;;13.50;87.00;;;14.06;40.47;102652.88;4917649;28;126476;-62
2022/02/28 03:11:44;;;;;;;4.33;3.53;;;13.60;83.70;;;14.05;40.37;102652.91;4915138;28;121287;-61
2022/02/28 03:14:11;;;;;;;3.17;2.87;;;13.50;83.20;;;14.05;40.09;102652.91;4918498;28;97053;-62
2022/02/28 03:16:38;;;;;;;4.07;3.63;;;13.50;85.70;;;14.07;39.81;102659.06;4915368;28;98778;-62
2022/02/28 03:19:04;;;;;;;3.93;3.33;;;13.50;81.00;;;14.05;40.12;102652.91;4916300;28;97457;-61
2022/02/28 03:21:30;;;;;;;3.23;2.93;;;13.50;83.20;;;14.04;40.04;102657.34;4912528;28;96969;-61
2022/02/28 03:23:56;;;;;;;3.57;3.23;;;13.50;85.10;;;14.03;40.20;102650.25;4916539;28;96967;-62
2022/02/28 03:26:22;;;;;;;3.80;3.40;;;13.50;82.70;;;14.00;40.27;102656.50;4914399;28;97397;-59
2022/02/28 03:28:48;;;;;;;3.57;3.23;;;13.50;82.40;;;13.93;40.22;102660.19;4920073;28;114858;-61
2022/02/28 03:31:14;;;;;;;3.37;3.07;;;13.30;81.10;;;13.86;40.56;102658.50;4919244;28;98361;-62
2022/02/28 03:33:39;;;;;;;3.70;3.30;;;13.20;85.60;;;13.81;40.56;102654.19;4913550;28;107429;-62
2022/02/28 03:36:06;;;;;;;3.73;3.17;;;13.10;84.70;;;13.77;40.69;102661.34;4921346;28;127094;-61
2022/02/28 03:38:31;;;;;;;3.70;3.20;;;13.00;83.70;;;13.72;40.88;102652.56;4920343;28;97608;-62
2022/02/28 03:40:57;;;;;;;3.90;3.30;;;12.90;84.90;;;13.64;40.91;102657.16;4917281;28;109124;-61
2022/02/28 03:43:24;;;;;;;4.33;3.93;;;12.70;84.50;;;13.53;41.24;102661.75;4918684;28;112165;-62
2022/02/28 03:45:50;;;;;;;4.10;3.63;;;12.50;82.30;;;13.36;41.36;102654.94;4915873;28;98362;-62
2022/02/28 03:48:17;;;;;;;5.00;4.50;;;12.20;82.00;;;13.23;41.31;102656.03;4924727;28;96939;-63
2022/02/28 03:50:43;;;;;;;4.77;4.30;;;12.00;82.00;;;13.10;41.43;102649.13;4900171;28;97138;-62
2022/02/28 03:53:09;;;;;;;7.10;4.53;;;11.80;82.00;;;13.01;41.70;102662.50;4919942;28;116925;-60
2022/02/28 03:55:35;;;;;;;6.47;4.50;;;11.70;82.70;;;12.85;41.84;102663.59;4913706;28;97507;-62
2022/02/28 03:58:01;;;;;;;4.83;4.13;;;11.50;82.20;;;12.77;43.00;102661.94;4919478;28;96910;-61
2022/02/28 04:00:26;;;;;;;4.93;3.87;;;11.40;85.10;;;12.67;43.22;102670.91;4915300;28;97284;-59
2022/02/28 04:02:52;;;;;;;4.17;3.60;;;11.30;85.70;;;12.58;43.43;102665.69;4912790;28;98739;-61
2022/02/28 04:05:19;;;;;;;4.77;3.63;;;11.20;85.90;;;12.50;43.54;102662.28;4899342;28;126709;-62
2022/02/28 04:07:47;;;;;;;5.03;4.30;;;11.10;87.20;;;12.41;43.65;102663.25;4918299;28;97241;-61
2022/02/28 04:10:14;;;;;;;4.17;3.63;;;11.00;85.50;;;12.31;44.05;102655.47;4917594;28;97487;-61
2022/02/28 04:12:40;;;;;;;4.13;3.73;;;10.90;85.80;;;12.29;44.17;102657.22;4912258;28;97748;-59
2022/02/28 04:15:07;;;;;;;6.17;4.77;;;10.80;87.10;;;12.19;43.77;102664.41;4913636;28;121519;-61
2022/02/28 04:17:33;;;;;;;5.30;4.07;;;10.70;85.50;;;12.16;44.32;102657.38;4917266;28;97426;-62
2022/02/28 04:20:00;;;;;;;3.50;3.20;;;10.70;86.10;;;12.10;44.73;102657.44;4901401;28;97287;-62
2022/02/28 04:22:26;;;;;;;5.10;4.60;;;10.70;90.40;;;12.05;44.38;102651.31;4915964;28;97320;-62
2022/02/28 04:24:52;;;;;;;4.53;4.13;;;10.60;87.50;;;12.04;44.57;102656.63;4911331;28;97295;-62
2022/02/28 04:27:17;;;;;;;4.30;3.87;;;10.60;88.80;;;12.08;44.63;102651.28;4914571;28;111055;-66
2022/02/28 04:29:43;;;;;;;3.90;3.10;;;10.60;90.10;;;12.09;44.61;102655.69;4915609;28;122435;-61
2022/02/28 04:32:09;;;;;;;4.30;3.90;;;10.70;90.70;;;12.09;44.71;102650.38;4918106;28;98191;-61
2022/02/28 04:34:35;;;;;;;5.63;4.90;;;10.80;90.00;;;12.10;44.18;102654.78;4899729;28;111196;-61
2022/02/28 04:37:01;;;;;;;4.50;3.70;;;10.80;86.20;;;12.04;44.34;102652.22;4913807;28;97009;-62
2022/02/28 04:39:26;;;;;;;3.40;3.10;;;10.70;86.40;;;12.01;44.73;102646.09;4880759;28;97140;-62
2022/02/28 04:41:52;;;;;;;10.03;6.00;;;10.60;89.10;;;11.94;44.13;102654.97;4916513;28;101286;-62
2022/02/28 04:44:18;;;;;;;6.03;4.73;;;10.50;87.60;;;11.95;44.52;102651.41;4913885;28;97516;-63
2022/02/28 04:46:44;;;;;;;7.37;5.03;;;10.50;88.80;;;11.91;44.60;102655.88;4884983;28;131351;-62
2022/02/28 04:49:10;;;;;;;5.00;4.27;;;10.50;87.70;;;11.83;44.60;102653.28;4920024;28;98296;-62
2022/02/28 04:51:35;;;;;;;8.07;5.93;;;10.30;88.10;;;11.79;44.18;102651.56;4915936;28;117148;-61
2022/02/28 04:54:03;;;;;;;6.33;4.90;;;10.30;87.80;;;11.74;44.82;102657.78;4922875;28;125593;-62
2022/02/28 04:56:28;;;;;;;4.90;4.13;;;10.30;89.60;;;11.76;45.04;102650.69;4884553;28;97218;-61
2022/02/28 04:58:54;;;;;;;6.07;5.10;;;10.30;90.60;;;11.74;45.06;102652.47;4899371;28;116455;-62
2022/02/28 05:01:20;;;;;;;5.97;4.33;;;10.30;89.50;;;11.76;44.98;102650.69;4911940;28;116453;-62
2022/02/28 05:03:51;;;;;;;5.27;3.40;;;10.40;89.40;;;11.68;45.29;102647.22;4917171;28;117217;-62
2022/02/28 05:06:19;;;;;;;5.43;4.40;;;10.30;89.60;;;11.73;45.18;102651.59;4914454;28;125329;-62
2022/02/28 05:08:45;;;;;;;5.77;4.37;;;10.30;89.80;;;11.71;45.03;102657.78;4907262;28;97017;-62
2022/02/28 05:11:11;;;;;;;4.70;4.00;;;10.30;88.00;;;11.71;45.33;102655.13;4918578;28;102144;-62
2022/02/28 05:13:37;;;;;;;6.03;4.23;;;10.30;90.30;;;11.74;45.14;102663.06;4904680;28;120173;-61
2022/02/28 05:16:03;;;;;;;4.47;3.43;;;10.30;90.40;;;11.78;44.50;102656.84;4924193;28;96740;-62
2022/02/28 05:18:29;;;;;;;4.90;4.40;;;10.40;87.50;;;11.75;45.05;102654.22;4918784;28;97345;-62
2022/02/28 05:20:54;;;;;;;6.40;4.27;;;10.30;88.90;;;11.77;44.92;102649.78;4919501;28;97715;-62
2022/02/28 05:23:21;;;;;;;6.23;4.60;;;10.40;90.10;;;11.82;44.65;102650.66;4914278;28;119286;-63
2022/02/28 05:25:47;;;;;;;3.93;3.40;;;10.40;90.00;;;11.81;44.91;102654.19;4928805;28;98174;-62
2022/02/28 05:28:13;;;;;;;4.00;3.60;;;10.40;90.10;;;11.85;44.85;102645.34;4899805;28;97015;-61
2022/02/28 05:30:39;;;;;;;3.90;3.60;;;10.40;90.30;;;11.91;44.88;102650.59;4918472;28;97599;-61
2022/02/28 05:33:05;;;;;;;4.37;3.80;;;10.50;89.20;;;11.95;44.74;102654.94;4919970;28;97355;-62
2022/02/28 05:35:31;;;;;;;4.63;3.90;;;10.60;89.80;;;11.97;44.64;102650.50;4920163;28;99006;-62
2022/02/28 05:37:57;;;;;;;6.60;4.63;;;10.60;89.30;;;11.95;44.71;102652.28;4920180;28;97045;-62
2022/02/28 05:40:23;;;;;;;4.37;3.97;;;10.60;89.00;;;11.93;44.92;102647.91;4916901;28;97010;-62
2022/02/28 05:42:49;;;;;;;6.67;4.40;;;10.50;88.70;;;11.91;44.87;102647.94;4921284;28;98409;-62
2022/02/28 05:45:15;;;;;;;4.00;3.60;;;10.40;89.30;;;11.93;44.96;102648.78;4916468;28;117601;-63
2022/02/28 05:47:42;;;;;;;4.03;3.37;;;10.50;91.50;;;11.98;44.97;102657.56;4915574;28;115418;-63
2022/02/28 05:50:11;;;;;;;3.50;3.20;;;10.60;90.20;;;12.03;44.85;102654.88;4921010;28;97154;-63
2022/02/28 05:52:45;;;;;;;4.73;3.53;;;10.70;91.70;;;12.13;44.71;102654.75;4913671;28;97418;-63
2022/02/28 05:55:12;;;;;;;4.37;3.73;;;10.90;90.80;;;12.21;44.47;102660.84;4918379;28;97336;-63
2022/02/28 05:57:39;;;;;;;5.70;3.80;;;11.00;90.40;;;12.25;44.50;102656.38;4914411;28;97232;-62
2022/02/28 06:00:07;;;;;;;5.33;4.00;;;11.00;89.60;;;12.26;43.99;102663.44;4917537;28;116556;-61
2022/02/28 06:02:33;;;;;;;5.87;3.93;;;11.00;86.90;;;12.28;44.20;102666.06;4904663;28;97103;-64
2022/02/28 06:04:59;;;;;;;7.33;4.50;;;10.90;89.40;;;12.26;44.04;102662.56;4921770;28;113364;-61
2022/02/28 06:07:25;;;;;;;4.93;4.00;;;10.90;88.00;;;12.19;44.40;102667.06;4912071;28;96967;-62
2022/02/28 06:09:53;;;;;;;6.87;5.20;;;10.80;89.20;;;12.14;44.22;102676.78;4914869;28;106148;-61
2022/02/28 06:12:19;;;;;;;6.60;5.73;;;10.70;88.50;;;12.07;43.85;102673.34;4927515;28;98404;-62
2022/02/28 06:14:46;;;;;;;12.37;6.53;;;10.60;88.10;;;12.00;43.57;102671.63;4920029;28;96862;-60
2022/02/28 06:17:12;;;;;;;6.53;5.20;;;10.50;87.00;;;11.99;44.26;102669.88;4917516;28;97864;-61
2022/02/28 06:19:40;;;;;;;4.30;3.90;;;10.40;89.10;;;12.02;44.59;102675.16;4912058;28;99092;-62
2022/02/28 06:22:06;;;;;;;5.17;3.70;;;10.50;89.60;;;12.05;44.59;102675.13;4922761;28;97418;-65
2022/02/28 06:24:32;;;;;;;5.10;3.33;;;10.70;91.10;;;12.17;44.30;102677.66;4919435;28;98667;-61
2022/02/28 06:26:58;;;;;;;6.67;4.77;;;10.90;92.20;;;12.27;43.98;102677.53;4918765;28;96937;-62
2022/02/28 06:29:24;;;;;;;3.90;3.60;;;11.10;88.10;;;12.33;44.23;102669.56;4917996;28;116347;-61
2022/02/28 06:31:50;;;;;;;4.03;3.63;;;11.20;90.80;;;12.40;44.06;102680.03;4933494;28;99864;-62
2022/02/28 06:34:16;;;;;;;4.57;3.67;;;11.30;92.30;;;12.49;43.57;102679.94;4918521;28;110578;-62
2022/02/28 06:36:42;;;;;;;4.50;3.73;;;11.40;90.10;;;12.57;43.34;102674.53;4898465;28;97353;-61
2022/02/28 06:39:10;;;;;;;6.33;4.43;;;11.50;87.50;;;12.56;43.58;102672.78;4920142;28;97272;-62
2022/02/28 06:41:37;;;;;;;8.10;4.93;;;11.50;87.90;;;12.54;43.11;102674.59;4905785;28;97098;-62
2022/02/28 06:44:03;;;;;;;6.73;4.30;;;11.40;86.00;;;12.52;43.36;102681.69;4919236;28;98664;-63
2022/02/28 06:46:29;;;;;;;7.90;6.00;;;11.20;87.80;;;12.44;43.31;102679.13;4920005;28;97026;-63
2022/02/28 06:48:55;;;;;;;5.97;4.20;;;11.10;88.00;;;12.36;43.66;102686.25;4920186;28;97514;-61
2022/02/28 06:51:21;;;;;;;7.90;5.80;;;10.90;90.00;;;12.32;43.38;102689.84;4915833;28;99344;-62
2022/02/28 06:53:46;;;;;;;4.57;3.73;;;10.90;86.80;;;12.30;44.07;102696.06;4918753;28;99802;-62
2022/02/28 06:56:12;;;;;;;6.90;5.50;;;10.80;90.00;;;12.21;43.41;102700.53;4922135;28;111411;-63
2022/02/28 06:58:38;;;;;;;5.20;4.13;;;10.80;86.20;;;12.21;43.71;102692.59;4913284;28;96991;-61
2022/02/28 07:01:06;;;;;;;5.17;4.13;;;10.80;87.90;;;12.16;44.01;102694.44;4916902;28;126785;-62
2022/02/28 07:03:33;;;;;;;4.53;4.10;;;10.80;90.00;;;12.12;44.14;102689.16;4912458;28;98883;-62
2022/02/28 07:05:59;;;;;;;5.17;3.80;;;10.70;90.60;;;12.10;44.39;102691.81;4929069;28;97486;-62
2022/02/28 07:08:25;;;;;;;4.60;3.97;;;10.70;91.30;;;12.15;43.93;102697.97;4918305;28;97070;-61
2022/02/28 07:10:52;;;;;;;7.57;5.27;;;10.80;89.20;;;12.11;43.92;102700.63;4917781;28;97444;-62
2022/02/28 07:13:20;;;;;;;5.60;4.53;;;10.80;88.80;;;12.15;43.88;102697.97;4914705;28;98494;-65
2022/02/28 07:15:47;;;;;;;4.53;3.87;;;10.80;90.00;;;12.16;44.21;102701.50;4922783;28;97255;-61
2022/02/28 07:18:14;;;;;;;5.27;4.17;;;10.80;91.00;;;12.28;44.00;102697.81;4906951;28;97218;-62
2022/02/28 07:20:41;;;;;;;4.17;3.70;;;11.10;90.30;;;12.37;43.72;102695.09;4915043;28;96898;-62
2022/02/28 07:23:07;;;;;;;4.10;3.63;;;11.30;91.90;;;12.47;43.46;102694.97;4892784;28;98145;-62
2022/02/28 07:25:34;;;;;;;6.10;4.63;;;11.50;90.20;;;12.58;43.18;102699.25;4917147;28;99330;-62
2022/02/28 07:28:00;;;;;;;7.00;5.80;;;11.70;89.00;;;12.56;43.03;102693.97;4917820;28;97518;-63
2022/02/28 07:30:25;;;;;;;7.57;5.57;;;11.50;86.60;;;12.52;42.48;102695.78;4913629;28;117517;-62
2022/02/28 07:32:51;;;;;;;6.37;4.80;;;11.40;86.20;;;12.46;43.28;102703.81;4920093;28;112221;-62
2022/02/28 07:35:18;;;;;;;5.23;4.37;;;11.20;87.80;;;12.46;43.30;102703.81;4917491;28;96970;-65
2022/02/28 07:37:44;;;;;;;5.30;4.10;;;11.20;90.40;;;12.50;43.37;102700.22;4918211;28;97416;-62
2022/02/28 07:40:11;;;;;;;3.93;3.53;;;11.30;89.80;;;12.47;43.47;102704.69;4914540;28;97967;-62
2022/02/28 07:42:38;;;;;;;5.97;4.47;;;11.30;90.00;;;12.47;42.88;102704.69;4911832;28;96599;-62
2022/02/28 07:45:06;;;;;;;4.97;3.93;;;11.40;87.50;;;12.48;43.23;102706.44;4916723;28;97437;-61
2022/02/28 07:47:33;;;;;;;4.33;3.60;;;11.40;88.20;;;12.52;43.08;102709.03;4911445;28;97073;-62
2022/02/28 07:49:59;;;;;;;5.10;4.20;;;11.50;89.20;;;12.52;43.26;102710.78;4915490;28;97905;-60
2022/02/28 07:52:25;;;;;;;5.17;3.83;;;11.50;90.20;;;12.62;43.21;102699.22;4926236;28;97432;-62
2022/02/28 07:54:50;;;;;;;6.17;5.13;;;11.70;91.20;;;12.63;42.51;102706.25;4922317;28;96945;-61
2022/02/28 07:57:16;;;;;;;7.17;4.87;;;11.70;87.40;;;12.63;43.08;102700.97;4916268;28;106458;-62
2022/02/28 07:59:42;;;;;;;4.17;3.30;;;11.70;87.90;;;12.76;42.89;102691.97;4913824;28;101765;-62
2022/02/28 08:02:08;;;;;;;4.50;3.63;;;11.80;91.40;;;12.92;42.57;102676.75;4914227;28;102848;-62
2022/02/28 08:04:34;;;;;;;4.47;3.70;;;12.20;90.70;;;13.16;42.07;102687.91;4908585;28;97227;-62
2022/02/28 08:07:00;;;;;;;3.50;3.13;;;12.70;86.50;;;13.45;41.73;102682.19;4914218;28;96934;-62
2022/02/28 08:09:26;;;;;;;4.77;3.13;;;13.10;89.70;;;13.69;40.94;102682.69;4910355;28;98295;-62
2022/02/28 08:11:54;;;;;;;6.40;5.30;;;13.50;87.60;;;13.87;40.16;102688.56;4921083;28;98243;-62
2022/02/28 08:14:20;;;;;;;4.43;3.67;;;13.80;83.00;;;14.15;40.28;102681.00;4908795;28;97138;-63
2022/02/28 08:16:46;;;;;;;7.07;6.37;;;14.10;86.00;;;14.09;35.07;102686.44;4914730;28;100215;-62
2022/02/28 08:19:12;;;;;;;7.83;4.93;;;14.10;75.40;;;14.24;39.16;102683.50;4913364;28;97397;-62
2022/02/28 08:21:37;;;;;;;8.67;6.60;;;14.10;78.40;;;14.06;37.86;102687.38;4896757;28;99431;-62
2022/02/28 08:24:04;;;;;;;4.03;3.57;;;13.80;76.90;;;14.07;39.84;102694.44;4921953;28;97972;-63
2022/02/28 08:26:30;;;;;;;3.87;3.50;;;13.70;80.80;;;14.04;40.25;102690.97;4914835;28;96853;-62
2022/02/28 08:28:55;;;;;;;3.97;3.50;;;13.60;86.50;;;14.13;40.09;102689.00;4921448;28;98100;-62
2022/02/28 08:31:21;;;;;;;8.63;7.07;;;13.80;85.60;;;14.05;35.86;102690.06;4916224;28;120263;-62
2022/02/28 08:33:47;;;;;;;4.53;4.10;;;13.70;74.30;;;14.04;40.09;102689.19;4920139;28;105337;-61
2022/02/28 08:36:13;;;;;;;3.40;2.97;;;13.50;83.40;;;14.05;40.13;102700.66;4921544;28;103788;-62
2022/02/28 08:38:39;;;;;;;7.03;6.03;;;13.60;85.90;;;14.20;38.96;102700.38;4917123;28;96793;-63
2022/02/28 08:41:05;;;;;;;7.53;6.07;;;13.90;78.00;;;13.87;35.84;102702.72;4919655;28;104243;-62
2022/02/28 08:43:31;;;;;;;6.47;5.87;;;13.50;74.60;;;13.86;38.47;102706.28;4917499;28;97960;-61
2022/02/28 08:45:57;;;;;;;4.70;3.80;;;13.40;80.60;;;14.11;39.97;102705.84;4921534;28;98932;-61
2022/02/28 08:48:23;;;;;;;8.13;6.80;;;13.70;83.20;;;14.04;34.63;102696.25;4921041;28;98674;-63
2022/02/28 08:50:50;;;;;;;4.43;3.50;;;13.80;74.60;;;14.09;39.82;102699.69;4922033;28;96993;-62
2022/02/28 08:53:15;;;;;;;3.97;3.27;;;13.70;85.30;;;14.06;39.89;102695.31;4922728;28;97289;-63
2022/02/28 08:55:41;;;;;;;6.23;4.87;;;13.80;84.50;;;14.12;39.70;102697.84;4921218;28;97076;-62
2022/02/28 08:58:07;;;;;;;4.57;4.13;;;13.90;82.00;;;14.07;39.35;102710.34;4907609;28;110780;-62
2022/02/28 09:00:33;;;;;;;5.90;4.53;;;13.70;77.30;;;13.88;38.18;102693.84;4917785;28;99238;-63
2022/02/28 09:02:59;;;;;;;4.63;3.83;;;13.50;73.20;;;14.02;40.15;102700.69;4920583;28;96985;-62
2022/02/28 09:05:25;;;;;;;4.23;3.20;;;13.60;86.10;;;14.28;39.75;102709.06;4917660;28;97145;-62
2022/02/28 09:07:50;;;;;;;4.63;3.60;;;14.10;85.60;;;14.37;39.51;102706.25;4925075;28;96867;-62
2022/02/28 09:10:18;;;;;;;5.50;4.60;;;14.30;83.20;;;14.54;38.68;102712.13;4919394;28;97597;-61
2022/02/28 09:12:44;;;;;;;4.80;4.30;;;14.60;80.00;;;14.67;38.49;102706.59;4909080;28;97420;-61
2022/02/28 09:15:10;;;;;;;5.63;4.77;;;14.70;78.50;;;14.78;35.13;102694.84;4927451;28;97351;-62
2022/02/28 09:17:36;;;;;;;5.50;4.97;;;14.90;77.30;;;14.91;37.52;102698.13;4912008;28;97351;-63
2022/02/28 09:20:03;;;;;;;4.40;3.60;;;15.10;78.80;;;14.99;38.14;102693.50;4922477;28;112271;-61
2022/02/28 09:22:29;;;;;;;5.97;5.37;;;15.20;81.20;;;15.05;36.79;102697.81;4916279;28;99407;-62
2022/02/28 09:24:55;;;;;;;4.37;3.77;;;15.20;76.60;;;15.04;37.49;102696.91;4925833;28;97233;-62
2022/02/28 09:27:20;;;;;;;4.87;4.13;;;15.20;80.30;;;15.14;37.73;102693.16;4919198;28;97541;-62
2022/02/28 09:29:46;;;;;;;4.97;4.43;;;15.40;79.90;;;15.18;37.63;102694.81;4923585;28;97055;-62
2022/02/28 09:32:12;;;;;;;4.97;4.33;;;15.50;79.80;;;15.27;37.43;102698.19;4919467;28;102886;-63
2022/02/28 09:34:39;;;;;;;5.17;4.17;;;15.60;79.40;;;15.31;37.23;102684.78;4913282;28;102877;-63
2022/02/28 09:37:04;;;;;;;4.17;3.77;;;15.70;79.00;;;15.05;36.56;102688.06;4916891;28;97286;-62
2022/02/28 09:39:30;;;;;;;7.20;4.67;;;15.40;76.90;;;15.16;36.48;102691.31;4889390;28;98970;-62
2022/02/28 09:41:58;;;;;;;6.27;5.03;;;15.40;76.80;;;15.24;36.24;102687.63;4921636;28;97141;-62
2022/02/28 09:44:25;;;;;;;7.23;6.03;;;15.40;76.60;;;15.23;30.16;102680.56;4917845;28;97917;-62
2022/02/28 09:46:53;;;;;;;10.13;7.63;;;15.50;68.60;;;15.26;34.66;102680.50;4921051;28;97053;-62
2022/02/28 09:49:19;;;;;;;6.47;5.00;;;15.40;72.50;;;15.33;35.53;102687.41;4895311;28;109413;-63
2022/02/28 09:51:45;;;;;;;8.83;7.13;;;15.50;75.50;;;15.11;33.43;102681.72;4918220;28;98119;-61
2022/02/28 09:54:12;;;;;;;4.87;4.37;;;15.20;67.40;;;15.10;35.67;102691.47;4923721;28;97486;-63
2022/02/28 09:56:38;;;;;;;7.80;4.50;;;15.00;73.90;;;15.15;36.28;102684.25;4915286;28;100572;-62
2022/02/28 09:59:04;;;;;;;6.10;4.67;;;15.20;77.70;;;15.22;36.16;102684.13;4917896;28;106255;-63
2022/02/28 10:01:30;;;;;;;6.80;5.67;;;15.30;77.30;;;15.23;35.46;102691.19;4880109;28;1186050;-62
2022/02/28 10:03:56;;;;;;;5.80;4.97;;;15.50;74.40;;;15.22;36.13;102689.47;4925106;28;97314;-64
2022/02/28 10:06:24;;;;;;;5.13;4.63;;;15.50;76.80;;;15.28;35.89;102687.50;4916620;28;104279;-62